Time;durP1;ratioP1;P1;durP2;ratioP2;P2;SDS_P1;SDS_P2;PMS_P1;PMS_P2;Temp;Humidity;BMP_temperature;BMP_pressure;BME280_temperature;BME280_humidity;BME280_pressure;Samples;Min_cycle;Max_cycle;Signal;HPM_P1;HPM_P2
2023/12/03 00:02:18;;;;;;;18.55;8.00;;;1.40;99.90;;;;;;4984683;28;20037;-70
2023/12/03 00:04:45;;;;;;;17.73;8.73;;;1.30;99.90;;;;;;4978391;28;20097;-70
2023/12/03 00:07:12;;;;;;;18.85;7.45;;;1.30;99.90;;;;;;4989639;28;20045;-70
2023/12/03 00:09:38;;;;;;;19.92;8.30;;;1.30;99.90;;;;;;4979551;28;20133;-70
2023/12/03 00:12:07;;;;;;;22.48;8.43;;;1.30;99.90;;;;;;4987899;28;20388;-70
2023/12/03 00:14:34;;;;;;;18.90;7.63;;;1.30;99.90;;;;;;4980489;28;20502;-70
2023/12/03 00:17:01;;;;;;;19.73;8.23;;;1.30;99.90;;;;;;4987018;28;20096;-70
2023/12/03 00:19:27;;;;;;;19.77;8.77;;;1.30;99.90;;;;;;4982731;28;20061;-70
2023/12/03 00:21:53;;;;;;;19.77;8.50;;;1.30;99.90;;;;;;4985262;28;20578;-70
2023/12/03 00:24:19;;;;;;;17.65;7.28;;;1.20;99.90;;;;;;4983265;28;20109;-70
2023/12/03 00:26:45;;;;;;;18.33;7.40;;;1.30;99.90;;;;;;4986556;28;20129;-70
2023/12/03 00:29:10;;;;;;;14.30;6.75;;;1.30;99.90;;;;;;4982510;28;20027;-70
2023/12/03 00:31:36;;;;;;;19.20;7.28;;;1.20;99.90;;;;;;4987029;28;20038;-70
2023/12/03 00:34:03;;;;;;;19.13;7.85;;;1.20;99.90;;;;;;4982539;28;20050;-70
2023/12/03 00:36:29;;;;;;;20.00;8.00;;;1.20;99.90;;;;;;4986791;28;20040;-70
2023/12/03 00:38:55;;;;;;;19.15;7.55;;;1.20;99.90;;;;;;4986287;28;20415;-70
2023/12/03 00:41:20;;;;;;;21.13;7.97;;;1.20;99.90;;;;;;4983980;28;20032;-70
2023/12/03 00:43:46;;;;;;;17.83;8.48;;;1.20;99.90;;;;;;4987483;28;20042;-70
2023/12/03 00:46:12;;;;;;;16.23;7.75;;;1.30;99.90;;;;;;4983983;28;20026;-70
2023/12/03 00:48:39;;;;;;;16.80;7.40;;;1.40;99.90;;;;;;4992708;28;20426;-70
2023/12/03 00:51:05;;;;;;;16.05;7.45;;;1.30;99.90;;;;;;4983400;28;20046;-69
2023/12/03 00:53:31;;;;;;;16.98;6.32;;;1.30;99.90;;;;;;4990670;28;20022;-70
2023/12/03 00:55:57;;;;;;;17.00;7.85;;;1.30;99.90;;;;;;4979856;28;20709;-70
2023/12/03 00:58:22;;;;;;;17.63;7.45;;;1.30;99.90;;;;;;4983181;28;20058;-70
2023/12/03 01:00:48;;;;;;;15.25;7.43;;;1.40;99.90;;;;;;4979263;28;20038;-70
2023/12/03 01:03:14;;;;;;;16.70;7.40;;;1.40;99.90;;;;;;4991853;28;20027;-70
2023/12/03 01:05:40;;;;;;;15.35;6.78;;;1.50;99.90;;;;;;4981314;28;20038;-70
2023/12/03 01:08:06;;;;;;;16.33;6.88;;;1.40;99.90;;;;;;4990773;28;20031;-70
2023/12/03 01:10:32;;;;;;;19.92;7.93;;;1.50;99.90;;;;;;4982382;28;20038;-70
2023/12/03 01:12:58;;;;;;;15.43;6.70;;;1.50;99.90;;;;;;4988771;28;20121;-70
2023/12/03 01:15:24;;;;;;;18.40;7.30;;;1.50;99.90;;;;;;4984787;28;20100;-70
2023/12/03 01:17:50;;;;;;;16.10;7.65;;;1.50;99.90;;;;;;4988110;28;20049;-70
2023/12/03 01:20:16;;;;;;;16.63;7.15;;;1.60;99.90;;;;;;4985133;28;20490;-70
2023/12/03 01:22:42;;;;;;;15.93;6.90;;;1.60;99.90;;;;;;4989077;28;20149;-70
2023/12/03 01:25:08;;;;;;;15.13;6.68;;;1.60;99.90;;;;;;4984476;28;20114;-70
2023/12/03 01:27:34;;;;;;;13.52;6.97;;;1.60;99.90;;;;;;4989780;28;20067;-70
2023/12/03 01:30:00;;;;;;;15.07;7.65;;;1.60;99.90;;;;;;4983671;28;20045;-70
2023/12/03 01:32:25;;;;;;;15.15;6.75;;;1.60;99.90;;;;;;4989146;28;20037;-70
2023/12/03 01:34:51;;;;;;;13.98;5.53;;;1.60;99.90;;;;;;4982913;28;20632;-70
2023/12/03 01:37:18;;;;;;;14.73;6.30;;;1.70;99.90;;;;;;4989552;28;20105;-70
2023/12/03 01:39:44;;;;;;;16.48;6.80;;;1.70;99.90;;;;;;4985811;28;20034;-70
2023/12/03 01:42:10;;;;;;;12.57;5.63;;;1.70;99.90;;;;;;4987873;28;20061;-70
2023/12/03 01:44:36;;;;;;;15.85;6.95;;;1.70;99.90;;;;;;4987623;28;20030;-70
2023/12/03 01:47:03;;;;;;;13.93;5.95;;;1.70;99.90;;;;;;4985834;28;20045;-70
2023/12/03 01:49:30;;;;;;;11.52;5.30;;;1.60;99.90;;;;;;4989193;28;20041;-70
2023/12/03 01:51:58;;;;;;;12.40;5.72;;;1.60;99.90;;;;;;4983755;28;20042;-70
2023/12/03 01:54:36;;;;;;;11.48;5.72;;;1.50;99.90;;;;;;4989846;28;20033;-70
2023/12/03 01:57:02;;;;;;;12.98;5.28;;;1.50;99.90;;;;;;4978871;28;20077;-70
2023/12/03 01:59:29;;;;;;;10.05;4.75;;;1.50;99.90;;;;;;4989772;28;20022;-70
2023/12/03 02:01:54;;;;;;;15.43;6.20;;;1.50;99.90;;;;;;4977697;28;20027;-70
2023/12/03 02:04:21;;;;;;;11.82;5.00;;;1.40;99.90;;;;;;4990329;28;20347;-70
2023/12/03 02:06:47;;;;;;;9.70;4.78;;;1.40;99.90;;;;;;4993603;28;20034;-70
2023/12/03 02:09:14;;;;;;;11.07;5.40;;;1.40;99.90;;;;;;4989232;28;20129;-70
2023/12/03 02:11:41;;;;;;;12.85;5.82;;;1.40;99.90;;;;;;4979878;28;20026;-70
2023/12/03 02:14:07;;;;;;;11.90;5.30;;;1.50;99.90;;;;;;4989735;28;20513;-70
2023/12/03 02:16:35;;;;;;;12.98;5.18;;;1.40;99.90;;;;;;4979801;28;20038;-70
2023/12/03 02:19:02;;;;;;;8.70;4.90;;;1.50;99.90;;;;;;4987858;28;20125;-70
2023/12/03 02:21:28;;;;;;;9.65;4.43;;;1.60;99.90;;;;;;4981797;28;20042;-70
2023/12/03 02:23:54;;;;;;;10.13;5.32;;;1.60;99.90;;;;;;4986547;28;20039;-70
2023/12/03 02:26:20;;;;;;;10.25;5.15;;;1.60;99.90;;;;;;4982526;28;20062;-70
2023/12/03 02:28:47;;;;;;;11.15;5.05;;;1.70;99.90;;;;;;4985904;28;20041;-70
2023/12/03 02:31:14;;;;;;;11.60;4.70;;;1.70;99.90;;;;;;4982970;28;20627;-70
2023/12/03 02:33:45;;;;;;;10.30;4.78;;;1.70;99.90;;;;;;4987948;28;20037;-70
2023/12/03 02:36:11;;;;;;;8.52;4.97;;;1.80;99.90;;;;;;4982702;28;20041;-70
2023/12/03 02:38:37;;;;;;;11.05;5.47;;;1.80;99.90;;;;;;4987977;28;20447;-70
2023/12/03 02:41:03;;;;;;;12.77;6.20;;;1.80;99.90;;;;;;4988238;28;20036;-70
2023/12/03 02:43:28;;;;;;;12.00;6.30;;;1.80;99.90;;;;;;4988032;28;20101;-70
2023/12/03 02:45:54;;;;;;;10.77;5.10;;;1.80;99.90;;;;;;4982145;28;20847;-70
2023/12/03 02:48:20;;;;;;;12.13;4.97;;;1.80;99.90;;;;;;4982072;28;20037;-70
2023/12/03 02:50:46;;;;;;;13.75;6.70;;;1.90;99.90;;;;;;4987797;28;20159;-70
2023/12/03 02:53:12;;;;;;;14.10;6.15;;;1.80;99.90;;;;;;4989015;28;20049;-70
2023/12/03 02:55:38;;;;;;;12.82;6.30;;;1.90;99.90;;;;;;4985244;28;20391;-70
2023/12/03 02:58:03;;;;;;;13.68;6.43;;;1.90;99.90;;;;;;4980043;28;20035;-70
2023/12/03 03:00:29;;;;;;;12.50;6.18;;;1.90;99.90;;;;;;4983391;28;20031;-70
2023/12/03 03:02:55;;;;;;;14.85;6.30;;;1.90;99.90;;;;;;4997469;28;20034;-70
2023/12/03 03:05:21;;;;;;;12.50;6.05;;;2.00;99.90;;;;;;4987506;28;20033;-70
2023/12/03 03:07:47;;;;;;;14.02;6.47;;;2.00;99.90;;;;;;4983787;28;20046;-70
2023/12/03 03:10:13;;;;;;;15.02;6.47;;;1.90;99.90;;;;;;4988200;28;20034;-70
2023/12/03 03:12:38;;;;;;;14.70;6.60;;;2.00;99.90;;;;;;4983602;28;20049;-70
2023/12/03 03:15:05;;;;;;;15.63;6.82;;;1.90;99.90;;;;;;4987949;28;20045;-70
2023/12/03 03:17:31;;;;;;;21.15;7.90;;;2.00;99.90;;;;;;4978085;28;20661;-70
2023/12/03 03:19:56;;;;;;;15.27;6.78;;;2.00;99.90;;;;;;4985236;28;20161;-70
2023/12/03 03:22:22;;;;;;;15.00;6.35;;;2.00;99.90;;;;;;4981261;28;20126;-69
2023/12/03 03:24:48;;;;;;;14.77;6.60;;;2.00;99.90;;;;;;4988711;28;20538;-70
2023/12/03 03:27:14;;;;;;;13.75;6.82;;;2.00;99.90;;;;;;4981125;28;20027;-69
2023/12/03 03:29:40;;;;;;;13.80;6.60;;;2.00;99.90;;;;;;4984084;28;20057;-70
2023/12/03 03:32:06;;;;;;;14.18;7.07;;;2.00;99.90;;;;;;4979977;28;20073;-69
2023/12/03 03:34:32;;;;;;;14.13;6.28;;;2.00;99.90;;;;;;4986486;28;20072;-70
2023/12/03 03:36:58;;;;;;;12.05;6.22;;;2.00;99.90;;;;;;4980539;28;20636;-70
2023/12/03 03:39:24;;;;;;;13.55;6.68;;;2.00;99.90;;;;;;4986590;28;20037;-70
2023/12/03 03:41:49;;;;;;;12.98;6.78;;;2.00;99.90;;;;;;4980818;28;20042;-70
2023/12/03 03:44:15;;;;;;;14.93;6.60;;;2.00;99.90;;;;;;4985535;28;20029;-70
2023/12/03 03:46:41;;;;;;;14.57;5.93;;;2.10;99.90;;;;;;4982092;28;20430;-70
2023/12/03 03:49:07;;;;;;;14.50;6.20;;;2.10;99.90;;;;;;4984179;28;20041;-70
2023/12/03 03:51:33;;;;;;;13.30;6.32;;;2.10;99.90;;;;;;4984109;28;20113;-70
2023/12/03 03:53:59;;;;;;;15.13;7.07;;;2.00;99.90;;;;;;4982216;28;20803;-70
2023/12/03 03:56:24;;;;;;;13.30;6.50;;;2.00;99.90;;;;;;4984665;28;20670;-70
2023/12/03 03:58:50;;;;;;;14.48;6.68;;;2.00;99.90;;;;;;4983359;28;20033;-70
2023/12/03 04:01:16;;;;;;;12.50;5.63;;;2.10;99.90;;;;;;4986130;28;20029;-70
2023/12/03 04:03:42;;;;;;;13.65;6.20;;;2.10;99.90;;;;;;4982397;28;20061;-70
2023/12/03 04:06:08;;;;;;;16.08;7.85;;;2.10;99.90;;;;;;5000517;28;20119;-70
2023/12/03 04:08:34;;;;;;;15.20;7.03;;;2.10;99.90;;;;;;4982464;28;20052;-70
2023/12/03 04:11:07;;;;;;;12.57;6.22;;;2.10;99.90;;;;;;4985426;28;20546;-70
2023/12/03 04:13:32;;;;;;;13.25;6.70;;;2.10;99.90;;;;;;4981954;28;20913;-70
2023/12/03 04:15:58;;;;;;;13.80;6.82;;;2.10;99.90;;;;;;4985149;28;20300;-70
2023/12/03 04:18:24;;;;;;;14.25;7.20;;;2.20;99.90;;;;;;4983523;28;20116;-70
2023/12/03 04:20:50;;;;;;;17.23;7.85;;;2.10;99.90;;;;;;4985880;28;20056;-70
2023/12/03 04:23:16;;;;;;;13.27;7.38;;;2.10;99.90;;;;;;4982719;28;20482;-70
2023/12/03 04:25:42;;;;;;;13.85;6.28;;;2.00;99.90;;;;;;4987621;28;20024;-70
2023/12/03 04:28:09;;;;;;;14.75;6.50;;;2.00;99.90;;;;;;4979803;28;20039;-70
2023/12/03 04:30:35;;;;;;;14.88;7.20;;;1.90;99.90;;;;;;4987654;28;20580;-70
2023/12/03 04:33:00;;;;;;;12.95;6.05;;;1.90;99.90;;;;;;4993286;28;20030;-70
2023/12/03 04:35:26;;;;;;;13.85;6.72;;;1.90;99.90;;;;;;4983465;28;20065;-70
2023/12/03 04:37:52;;;;;;;13.80;6.15;;;1.80;99.90;;;;;;4979019;28;20042;-70
2023/12/03 04:40:19;;;;;;;15.27;7.25;;;1.80;99.90;;;;;;4983063;28;20030;-70
2023/12/03 04:42:45;;;;;;;12.35;6.60;;;1.70;99.90;;;;;;4979865;28;20041;-70
2023/12/03 04:45:11;;;;;;;10.80;5.97;;;1.70;99.90;;;;;;4984048;28;20027;-70
2023/12/03 04:47:36;;;;;;;12.23;6.15;;;1.60;99.90;;;;;;4985398;28;20089;-70
2023/12/03 04:50:02;;;;;;;13.48;7.22;;;1.60;99.90;;;;;;4981528;28;20034;-70
2023/12/03 04:52:28;;;;;;;15.35;7.00;;;1.60;99.90;;;;;;4983592;28;20044;-70
2023/12/03 04:54:54;;;;;;;15.43;7.15;;;1.50;99.90;;;;;;4979641;28;20034;-70
2023/12/03 04:57:20;;;;;;;16.25;7.22;;;1.50;99.90;;;;;;4979102;28;20401;-70
2023/12/03 04:59:46;;;;;;;15.63;7.10;;;1.40;99.90;;;;;;4981533;28;20031;-70
2023/12/03 05:02:11;;;;;;;15.43;7.35;;;1.30;99.90;;;;;;4984220;28;20235;-70
2023/12/03 05:04:37;;;;;;;15.05;7.28;;;1.30;99.90;;;;;;4979282;28;20446;-70
2023/12/03 05:07:03;;;;;;;16.52;8.05;;;1.30;99.90;;;;;;4984310;28;20070;-70
2023/12/03 05:09:29;;;;;;;18.42;7.60;;;1.20;99.90;;;;;;4980992;28;20034;-70
2023/12/03 05:11:55;;;;;;;14.05;7.20;;;1.20;99.90;;;;;;4983369;28;20061;-70
2023/12/03 05:14:21;;;;;;;15.18;7.80;;;1.10;99.90;;;;;;4982003;28;20478;-69
2023/12/03 05:16:47;;;;;;;18.25;8.10;;;1.10;99.90;;;;;;4985006;28;20122;-70
2023/12/03 05:19:13;;;;;;;14.23;6.85;;;1.10;99.90;;;;;;4980676;28;20044;-70
2023/12/03 05:21:39;;;;;;;18.63;7.25;;;1.00;99.90;;;;;;4986480;28;20026;-70
2023/12/03 05:24:05;;;;;;;16.65;7.50;;;1.00;99.90;;;;;;4978558;28;20038;-70
2023/12/03 05:26:31;;;;;;;14.18;7.68;;;1.00;99.90;;;;;;4988272;28;20127;-70
2023/12/03 05:28:57;;;;;;;15.55;7.82;;;1.00;99.90;;;;;;4983457;28;20018;-70
2023/12/03 05:31:22;;;;;;;15.00;6.93;;;1.00;99.90;;;;;;4993123;28;20049;-70
2023/12/03 05:33:48;;;;;;;17.13;7.82;;;1.10;99.90;;;;;;4981200;28;20027;-69
2023/12/03 05:36:24;;;;;;;17.08;8.07;;;1.20;99.90;;;;;;4982871;28;20038;-70
2023/12/03 05:38:53;;;;;;;18.58;7.93;;;1.20;99.90;;;;;;4979706;28;20373;-70
2023/12/03 05:41:19;;;;;;;14.65;6.85;;;1.20;99.90;;;;;;4990034;28;20034;-70
2023/12/03 05:43:45;;;;;;;18.00;7.57;;;1.20;99.90;;;;;;4979918;28;20060;-70
2023/12/03 05:46:11;;;;;;;19.25;8.18;;;1.20;99.90;;;;;;4990630;28;20034;-70
2023/12/03 05:48:36;;;;;;;17.70;7.85;;;1.20;99.90;;;;;;4980766;28;20045;-70
2023/12/03 05:51:09;;;;;;;18.70;8.77;;;1.20;99.90;;;;;;4989291;28;20501;-70
2023/12/03 05:53:35;;;;;;;15.82;8.32;;;1.20;99.90;;;;;;4981293;28;21045;-69
2023/12/03 05:56:01;;;;;;;15.27;8.38;;;1.20;99.90;;;;;;4981961;28;20121;-70
2023/12/03 05:58:26;;;;;;;16.83;7.78;;;1.20;99.90;;;;;;4986020;28;20129;-70
2023/12/03 06:00:52;;;;;;;12.15;6.05;;;1.20;99.90;;;;;;4986013;28;20057;-70
2023/12/03 06:03:18;;;;;;;20.20;9.05;;;1.20;99.90;;;;;;4985128;28;20099;-70
2023/12/03 06:05:44;;;;;;;20.27;8.50;;;1.20;99.90;;;;;;4983013;28;20038;-70
2023/12/03 06:08:09;;;;;;;16.20;7.78;;;1.20;99.90;;;;;;4985839;28;20035;-70
2023/12/03 06:10:35;;;;;;;19.60;8.48;;;1.20;99.90;;;;;;4982896;28;20038;-70
2023/12/03 06:13:01;;;;;;;14.95;8.27;;;1.10;99.90;;;;;;4986272;28;20045;-70
2023/12/03 06:15:27;;;;;;;20.48;8.57;;;1.10;99.90;;;;;;4988834;28;20104;-70
2023/12/03 06:17:53;;;;;;;18.92;8.68;;;1.20;99.90;;;;;;4985469;28;20198;-70
2023/12/03 06:20:19;;;;;;;21.30;9.18;;;1.20;99.90;;;;;;4983907;28;20029;-70
2023/12/03 06:22:44;;;;;;;17.05;7.88;;;1.10;99.90;;;;;;4986785;28;20065;-70
2023/12/03 06:25:10;;;;;;;18.75;7.95;;;1.20;99.90;;;;;;4981965;28;20031;-69
2023/12/03 06:27:36;;;;;;;21.80;8.68;;;1.20;99.90;;;;;;4989302;28;20069;-70
2023/12/03 06:30:02;;;;;;;20.25;9.00;;;1.20;99.90;;;;;;4983370;28;20027;-70
2023/12/03 06:32:28;;;;;;;18.15;7.97;;;1.30;99.90;;;;;;4990302;28;20104;-70
2023/12/03 06:34:54;;;;;;;16.35;7.53;;;1.30;99.90;;;;;;4978746;28;20038;-70
2023/12/03 06:37:20;;;;;;;20.88;9.13;;;1.30;99.90;;;;;;4991442;28;20536;-70
2023/12/03 06:39:47;;;;;;;19.20;9.60;;;1.40;99.90;;;;;;4979973;28;20062;-70
2023/12/03 06:42:13;;;;;;;22.35;8.80;;;1.40;99.90;;;;;;4991094;28;20670;-70
2023/12/03 06:44:39;;;;;;;18.67;8.63;;;1.40;99.90;;;;;;4985640;28;20032;-70
2023/12/03 06:47:05;;;;;;;28.23;11.82;;;1.50;99.90;;;;;;4994960;28;20030;-70
2023/12/03 06:49:31;;;;;;;20.52;9.20;;;1.50;99.90;;;;;;4982305;28;20256;-70
2023/12/03 06:51:57;;;;;;;21.90;10.63;;;1.60;99.90;;;;;;4988036;28;20034;-70
2023/12/03 06:54:23;;;;;;;19.75;9.25;;;1.50;99.90;;;;;;4988510;28;20038;-70
2023/12/03 06:56:48;;;;;;;23.15;10.13;;;1.50;99.90;;;;;;4987161;28;20419;-70
2023/12/03 06:59:14;;;;;;;33.30;19.50;;;1.50;99.90;;;;;;4984165;28;20109;-70
2023/12/03 07:01:40;;;;;;;26.45;15.18;;;1.60;99.90;;;;;;4988109;28;20026;-70
2023/12/03 07:04:06;;;;;;;24.33;10.15;;;1.50;99.90;;;;;;4983218;28;20685;-70
2023/12/03 07:06:32;;;;;;;24.02;11.80;;;1.50;99.90;;;;;;4988101;28;20486;-70
2023/12/03 07:08:58;;;;;;;17.50;8.52;;;1.50;99.90;;;;;;4983324;28;20126;-70
2023/12/03 07:11:23;;;;;;;21.73;9.98;;;1.50;99.90;;;;;;4987428;28;20030;-70
2023/12/03 07:13:49;;;;;;;23.25;10.93;;;1.50;99.90;;;;;;4984125;28;20466;-70
2023/12/03 07:16:15;;;;;;;20.10;10.23;;;1.50;99.90;;;;;;4981375;28;20037;-70
2023/12/03 07:18:42;;;;;;;17.42;8.43;;;1.50;99.90;;;;;;4984860;28;20042;-70
2023/12/03 07:21:10;;;;;;;17.88;8.77;;;1.50;99.90;;;;;;4979363;28;20042;-69
2023/12/03 07:23:36;;;;;;;18.65;8.70;;;1.60;99.90;;;;;;4986205;28;20161;-70
2023/12/03 07:26:08;;;;;;;18.48;8.23;;;1.50;99.90;;;;;;4977534;28;20072;-70
2023/12/03 07:28:34;;;;;;;16.85;8.38;;;1.50;99.90;;;;;;4987010;28;20108;-70
2023/12/03 07:31:00;;;;;;;22.30;8.60;;;1.50;99.90;;;;;;4985065;28;20046;-70
2023/12/03 07:33:25;;;;;;;22.42;9.02;;;1.50;99.90;;;;;;4988602;28;20141;-70
2023/12/03 07:35:51;;;;;;;17.73;7.82;;;1.50;99.90;;;;;;4976858;28;20034;-70
2023/12/03 07:38:17;;;;;;;20.63;9.48;;;1.50;99.90;;;;;;4987812;28;20462;-70
2023/12/03 07:40:43;;;;;;;16.95;7.80;;;1.50;99.90;;;;;;4976838;28;20092;-70
2023/12/03 07:43:09;;;;;;;17.73;8.13;;;1.40;99.90;;;;;;4986891;28;20057;-70
2023/12/03 07:45:35;;;;;;;21.65;9.93;;;1.40;99.90;;;;;;4978172;28;20034;-70
2023/12/03 07:48:01;;;;;;;18.45;8.02;;;1.40;99.90;;;;;;4986262;28;20044;-70
2023/12/03 07:50:27;;;;;;;15.23;7.65;;;1.50;99.90;;;;;;4978671;28;20088;-69
2023/12/03 07:52:53;;;;;;;15.57;7.68;;;1.50;99.90;;;;;;4985643;28;20193;-70
2023/12/03 07:55:18;;;;;;;18.65;7.72;;;1.50;99.90;;;;;;4983032;28;20447;-70
2023/12/03 07:57:45;;;;;;;14.73;7.25;;;1.50;99.90;;;;;;4986253;28;20108;-70
2023/12/03 08:00:11;;;;;;;16.75;7.30;;;1.50;99.90;;;;;;4981889;28;20027;-70
2023/12/03 08:02:39;;;;;;;16.05;7.55;;;1.60;99.90;;;;;;4986510;28;20034;-70
2023/12/03 08:05:06;;;;;;;16.33;7.57;;;1.60;99.90;;;;;;4981588;28;20037;-70
2023/12/03 08:07:31;;;;;;;15.95;7.68;;;1.60;99.90;;;;;;4982989;28;20038;-70
2023/12/03 08:09:57;;;;;;;15.93;7.72;;;1.60;99.90;;;;;;4995022;28;20046;-70
2023/12/03 08:12:23;;;;;;;17.92;7.85;;;1.60;99.90;;;;;;4986463;28;20038;-70
2023/12/03 08:14:49;;;;;;;17.92;7.63;;;1.50;99.90;;;;;;4981925;28;20038;-70
2023/12/03 08:17:15;;;;;;;16.92;8.13;;;1.40;99.90;;;;;;4969840;28;20033;-69
2023/12/03 08:19:41;;;;;;;17.73;7.95;;;1.40;99.90;;;;;;4970110;28;20038;-69
2023/12/03 08:22:07;;;;;;;24.77;10.48;;;1.50;99.90;;;;;;4983161;28;20514;-70
2023/12/03 08:24:34;;;;;;;23.98;10.15;;;1.60;99.90;;;;;;4985218;28;20026;-70
2023/12/03 08:27:00;;;;;;;21.80;9.80;;;1.60;99.90;;;;;;4981861;28;20130;-71
2023/12/03 08:29:26;;;;;;;18.58;9.25;;;1.60;99.90;;;;;;4985409;28;20045;-70
2023/12/03 08:31:52;;;;;;;21.85;8.50;;;1.60;99.90;;;;;;4974837;28;20035;-70
2023/12/03 08:34:18;;;;;;;21.95;8.68;;;1.60;99.90;;;;;;4987513;28;20034;-70
2023/12/03 08:36:44;;;;;;;21.10;8.32;;;1.50;99.90;;;;;;4982755;28;20688;-72
2023/12/03 08:39:10;;;;;;;21.02;8.95;;;1.50;99.90;;;;;;4985573;28;20041;-70
2023/12/03 08:41:36;;;;;;;21.40;8.52;;;1.50;99.90;;;;;;4976959;28;20823;-71
2023/12/03 08:44:03;;;;;;;16.65;7.95;;;1.50;99.90;;;;;;4985791;28;20395;-71
2023/12/03 08:46:29;;;;;;;21.52;9.05;;;1.50;99.90;;;;;;4978960;28;20066;-70
2023/12/03 08:48:56;;;;;;;22.05;8.15;;;1.60;99.90;;;;;;4985611;28;20034;-71
2023/12/03 08:51:22;;;;;;;20.38;8.75;;;1.60;99.90;;;;;;4980827;28;20642;-68
2023/12/03 08:53:48;;;;;;;21.52;9.38;;;1.60;99.90;;;;;;4983929;28;20026;-68
2023/12/03 08:56:14;;;;;;;16.52;7.68;;;1.60;99.90;;;;;;4988480;28;20054;-68
2023/12/03 08:58:40;;;;;;;14.73;7.72;;;1.60;99.90;;;;;;4985690;28;20213;-68
2023/12/03 09:01:09;;;;;;;17.65;9.20;;;1.60;99.90;;;;;;4985323;28;20411;-68
2023/12/03 09:03:35;;;;;;;21.02;9.55;;;1.70;99.90;;;;;;4991324;28;20048;-68
2023/12/03 09:06:01;;;;;;;22.73;9.43;;;1.70;99.90;;;;;;4983672;28;20033;-69
2023/12/03 09:08:27;;;;;;;21.67;8.73;;;1.70;99.90;;;;;;4989864;28;20041;-68
2023/12/03 09:10:52;;;;;;;25.35;10.48;;;1.70;99.90;;;;;;4983286;28;20126;-68
2023/12/03 09:13:19;;;;;;;23.92;10.23;;;1.70;99.90;;;;;;4989342;28;20799;-68
2023/12/03 09:15:44;;;;;;;19.45;8.88;;;1.70;99.90;;;;;;4985006;28;20104;-68
2023/12/03 09:18:10;;;;;;;20.60;9.10;;;1.70;99.90;;;;;;4988002;28;20495;-68
2023/12/03 09:20:36;;;;;;;23.13;9.68;;;1.70;99.90;;;;;;4985970;28;20084;-72
2023/12/03 09:23:02;;;;;;;19.75;8.85;;;1.70;99.90;;;;;;4985788;28;20068;-68
2023/12/03 09:25:28;;;;;;;21.23;8.27;;;1.70;99.90;;;;;;4988645;28;20054;-68
2023/12/03 09:27:54;;;;;;;25.45;10.23;;;1.70;99.90;;;;;;4984256;28;20031;-70
2023/12/03 09:30:19;;;;;;;22.50;9.32;;;1.60;99.90;;;;;;4988121;28;20066;-70
2023/12/03 09:32:46;;;;;;;22.67;11.80;;;1.70;99.90;;;;;;4985297;28;20049;-70
2023/12/03 09:35:11;;;;;;;30.38;9.93;;;1.80;99.90;;;;;;4987484;28;20121;-68
2023/12/03 09:37:37;;;;;;;21.77;10.73;;;1.80;99.90;;;;;;4985228;28;20037;-69
2023/12/03 09:40:04;;;;;;;23.20;10.77;;;1.90;99.90;;;;;;4988744;28;20534;-68
2023/12/03 09:42:33;;;;;;;19.90;10.05;;;1.90;99.90;;;;;;4984429;28;20033;-69
2023/12/03 09:45:04;;;;;;;20.13;8.48;;;1.90;99.90;;;;;;4985531;28;20117;-68
2023/12/03 09:47:47;;;;;;;21.27;9.15;;;2.00;99.90;;;;;;4984295;28;20037;-68
2023/12/03 09:50:13;;;;;;;21.23;7.97;;;2.00;99.90;;;;;;4987504;28;20033;-69
2023/12/03 09:52:42;;;;;;;20.77;8.65;;;2.00;99.90;;;;;;4978303;28;20125;-68
2023/12/03 09:55:08;;;;;;;16.50;8.23;;;2.10;99.90;;;;;;4982918;28;20038;-68
2023/12/03 09:57:36;;;;;;;19.00;7.13;;;2.10;99.90;;;;;;4978960;28;20117;-67
2023/12/03 10:00:07;;;;;;;17.02;7.55;;;2.10;99.90;;;;;;4988335;28;20392;-68
2023/12/03 10:02:37;;;;;;;16.10;8.30;;;2.20;99.90;;;;;;4982687;28;20030;-69
2023/12/03 10:05:03;;;;;;;22.45;10.75;;;2.20;99.90;;;;;;4986780;28;20042;-69
2023/12/03 10:07:30;;;;;;;15.75;7.72;;;2.20;99.90;;;;;;4980485;28;20038;-68
2023/12/03 10:10:00;;;;;;;19.10;7.93;;;2.10;99.90;;;;;;4986568;28;20054;-69
2023/12/03 10:12:40;;;;;;;25.50;12.02;;;2.20;99.90;;;;;;4981649;28;20650;-68
2023/12/03 10:15:08;;;;;;;17.73;7.38;;;2.30;99.90;;;;;;4989117;28;20105;-68
2023/12/03 10:17:34;;;;;;;20.60;8.73;;;2.30;99.90;;;;;;4982319;28;20030;-62
2023/12/03 10:20:19;;;;;;;17.83;7.47;;;2.30;99.90;;;;;;4987725;28;20022;-68
2023/12/03 10:22:44;;;;;;;16.52;8.23;;;2.30;99.90;;;;;;4979842;28;20046;-68
2023/12/03 10:25:10;;;;;;;16.75;7.75;;;2.40;99.90;;;;;;4989892;28;20037;-66
2023/12/03 10:27:37;;;;;;;23.48;10.68;;;2.40;99.90;;;;;;4980312;28;20035;-68
2023/12/03 10:30:03;;;;;;;19.88;8.88;;;2.50;99.90;;;;;;4986599;28;20679;-67
2023/12/03 10:32:29;;;;;;;13.75;7.28;;;2.50;99.90;;;;;;4981461;28;20038;-67
2023/12/03 10:34:56;;;;;;;19.83;7.40;;;2.50;99.90;;;;;;4986496;28;20041;-67
2023/12/03 10:37:22;;;;;;;16.48;7.70;;;2.50;99.70;;;;;;4983809;28;20526;-66
2023/12/03 10:39:48;;;;;;;19.00;8.63;;;2.50;99.90;;;;;;4986641;28;20027;-67
2023/12/03 10:42:14;;;;;;;15.60;7.43;;;2.40;99.80;;;;;;4983234;28;20109;-67
2023/12/03 10:44:39;;;;;;;13.35;6.47;;;2.50;99.90;;;;;;4988171;28;20034;-66
2023/12/03 10:47:05;;;;;;;14.27;6.82;;;2.50;99.80;;;;;;4982994;28;20415;-66
2023/12/03 10:49:32;;;;;;;16.85;7.75;;;2.50;99.80;;;;;;4988065;28;20034;-66
2023/12/03 10:51:59;;;;;;;18.08;7.18;;;2.60;99.70;;;;;;4989389;28;20096;-66
2023/12/03 10:54:26;;;;;;;14.85;7.00;;;2.60;99.50;;;;;;4985406;28;20307;-66
2023/12/03 10:56:55;;;;;;;11.65;5.93;;;2.60;99.40;;;;;;4983058;28;20038;-66
2023/12/03 10:59:29;;;;;;;16.13;7.97;;;2.60;99.40;;;;;;4988015;28;20398;-66
2023/12/03 11:01:57;;;;;;;16.75;7.30;;;2.60;99.50;;;;;;4982141;28;20117;-66
2023/12/03 11:04:40;;;;;;;15.32;6.88;;;2.60;99.20;;;;;;4988534;28;20026;-66
2023/12/03 11:07:09;;;;;;;14.60;7.22;;;2.60;99.10;;;;;;4984041;28;20042;-66
2023/12/03 11:09:37;;;;;;;16.30;7.43;;;2.60;99.50;;;;;;4997569;28;20041;-66
2023/12/03 11:12:03;;;;;;;16.02;7.03;;;2.60;99.30;;;;;;4981923;28;20040;-66
2023/12/03 11:14:29;;;;;;;15.50;8.07;;;2.60;99.40;;;;;;4981433;28;20061;-66
2023/12/03 11:17:17;;;;;;;16.45;7.22;;;2.60;99.30;;;;;;4983059;28;20035;-66
2023/12/03 11:19:48;;;;;;;17.67;7.43;;;2.60;99.10;;;;;;4983767;28;20027;-66
2023/12/03 11:22:38;;;;;;;15.40;6.75;;;2.60;99.20;;;;;;4983547;28;20510;-66
2023/12/03 11:25:04;;;;;;;20.48;9.13;;;2.70;99.30;;;;;;4986841;28;20041;-66
2023/12/03 11:27:30;;;;;;;16.80;7.32;;;2.80;99.60;;;;;;4984224;28;20034;-66
2023/12/03 11:29:56;;;;;;;17.42;10.30;;;2.80;99.20;;;;;;4984074;28;20466;-65
2023/12/03 11:32:25;;;;;;;19.00;9.00;;;2.80;99.30;;;;;;4985024;28;20058;-66
2023/12/03 11:35:07;;;;;;;15.80;7.72;;;2.80;99.30;;;;;;4981103;28;20065;-66
2023/12/03 11:37:33;;;;;;;15.45;7.43;;;2.80;98.70;;;;;;4982652;28;20046;-65
2023/12/03 11:40:10;;;;;;;22.63;11.27;;;2.70;98.70;;;;;;4981406;28;20073;-65
2023/12/03 11:42:43;;;;;;;19.83;9.30;;;2.60;98.80;;;;;;4983026;28;20117;-65
2023/12/03 11:45:21;;;;;;;16.40;7.93;;;2.60;99.20;;;;;;4981139;28;20057;-65
2023/12/03 11:48:11;;;;;;;13.77;6.80;;;2.60;99.20;;;;;;4980668;28;20475;-66
2023/12/03 11:50:46;;;;;;;21.15;10.27;;;2.50;99.40;;;;;;4987868;28;20037;-66
2023/12/03 11:53:16;;;;;;;25.08;12.57;;;2.60;99.30;;;;;;4981508;28;20054;-65
2023/12/03 11:55:47;;;;;;;20.30;8.80;;;2.70;99.30;;;;;;4985958;28;20057;-66
2023/12/03 11:58:14;;;;;;;15.55;8.05;;;2.60;99.30;;;;;;4996805;28;20041;-65
2023/12/03 12:00:45;;;;;;;15.73;7.95;;;2.70;99.50;;;;;;4986153;28;20113;-65
2023/12/03 12:03:11;;;;;;;14.43;6.80;;;2.70;99.50;;;;;;4981532;28;20034;-66
2023/12/03 12:05:45;;;;;;;14.77;6.60;;;2.70;99.30;;;;;;4986418;28;20038;-66
2023/12/03 12:08:21;;;;;;;15.88;6.88;;;2.70;98.90;;;;;;4981971;28;20047;-63
2023/12/03 12:10:47;;;;;;;15.05;6.90;;;2.70;98.90;;;;;;4985322;28;20077;-66
2023/12/03 12:13:14;;;;;;;14.27;6.38;;;2.80;98.90;;;;;;4982581;28;20049;-66
2023/12/03 12:15:43;;;;;;;11.98;6.07;;;2.70;98.20;;;;;;4987277;28;20038;-67
2023/12/03 12:18:10;;;;;;;12.43;5.80;;;2.70;98.20;;;;;;4982135;28;20426;-67
2023/12/03 12:20:37;;;;;;;12.82;6.38;;;2.70;98.30;;;;;;4986853;28;20205;-66
2023/12/03 12:23:03;;;;;;;10.32;5.25;;;2.80;98.50;;;;;;4985451;28;20096;-67
2023/12/03 12:25:29;;;;;;;11.90;6.15;;;2.80;98.70;;;;;;4986621;28;20154;-66
2023/12/03 12:27:55;;;;;;;13.98;5.93;;;2.80;98.30;;;;;;4980565;28;20142;-64
2023/12/03 12:30:27;;;;;;;13.27;5.70;;;2.80;98.60;;;;;;4984525;28;20129;-66
2023/12/03 12:32:54;;;;;;;14.60;6.25;;;2.90;98.70;;;;;;4981784;28;20133;-66
2023/12/03 12:35:21;;;;;;;12.93;5.97;;;2.90;98.50;;;;;;4981195;28;20064;-66
2023/12/03 12:37:47;;;;;;;11.35;5.43;;;2.90;98.60;;;;;;4985074;28;20034;-64
2023/12/03 12:40:15;;;;;;;14.00;6.25;;;2.90;98.30;;;;;;4982613;28;20030;-66
2023/12/03 12:42:42;;;;;;;15.13;7.00;;;3.00;98.40;;;;;;4987938;28;20037;-66
2023/12/03 12:45:27;;;;;;;11.50;5.55;;;3.00;97.80;;;;;;4983623;28;20676;-66